Main page
METAR-TAF:

METAR-TAF

Airports :

RAF Northolt

Northolt, England

latitude: 51-33N, longitude: 000-25W, elevation: 38 m

Current weather observation

The report was made 1 hour and 1 minutes ago, at 00:50 UTC
Wind 4 kt from the East/Northeast
Temperature 0°C
Humidity 86%
Pressure 1011 hPa
Visibility 10 km or more

METAR: EGWU 200050Z AUTO 07004KT 9999 // NCD 00/M02 Q1011

Time: 01:51 (01:51 UTC)

Forecast

The report was made 6 hours and 1 minutes ago, at 19:50 UTC
Forecast valid from 19 at 21 UTC to 20 at 15 UTC
Wind 6 kt from the Southeast
Visibility 10 km or more
Broken clouds at a height of 1400 ft
Becoming
from 19 at 21 UTC to 19 at 23 UTC
Broken clouds at a height of 1800 ft
Probability 30% :
Temporary
from 19 at 21 UTC to 20 at 05 UTC
Scattered clouds at a height of 2500 ft
Becoming
from 20 at 05 UTC to 20 at 08 UTC
Few clouds at a height of 1800 ft

TAF: EGWU 191950Z 1921/2015 14006KT 9999 BKN014 BECMG 1921/1923 BKN018 PROB30 TEMPO 1921/2005 SCT025 BECMG 2005/2008 FEW018

Weather observations and forecasts of more than 4000 airports (METAR and TAF reports).

The available stations are represented by yellow and red dots on the map.

Hover mouse over dot to see the name of the station.

Then click to see weather observations and forecasts.

To change the map : click on the green buttons with a black cross to zoom in, on the green button with a dash to zoom out, or on the green arrows for adjacent maps.


METAR-TAF: